createdAt,value
2019-03-25T00:01:20.282Z,4.83
2019-03-25T00:03:48.648Z,4.23
2019-03-25T00:06:17.180Z,3.53
2019-03-25T00:08:45.542Z,3.90
2019-03-25T00:11:13.920Z,3.93
2019-03-25T00:13:42.297Z,3.83
2019-03-25T00:16:10.736Z,3.83
2019-03-25T00:18:39.096Z,4.40
2019-03-25T00:21:07.469Z,4.30
2019-03-25T00:23:35.837Z,4.20
2019-03-25T00:26:04.215Z,4.80
2019-03-25T00:28:32.577Z,4.10
2019-03-25T00:31:01.024Z,3.90
2019-03-25T00:33:29.389Z,3.50
2019-03-25T00:35:57.760Z,3.53
2019-03-25T00:38:26.127Z,3.83
2019-03-25T00:40:54.505Z,3.60
2019-03-25T00:43:23.357Z,4.00
2019-03-25T00:45:51.721Z,3.50
2019-03-25T00:48:20.093Z,3.70
2019-03-25T00:50:48.528Z,3.97
2019-03-25T00:53:16.902Z,3.80
2019-03-25T00:55:45.265Z,4.90
2019-03-25T00:58:13.655Z,3.33
2019-03-25T01:00:42.200Z,4.97
2019-03-25T01:03:10.640Z,3.42
2019-03-25T01:05:39.076Z,4.20
2019-03-25T01:08:07.449Z,3.70
2019-03-25T01:10:38.907Z,3.72
2019-03-25T01:13:07.291Z,3.30
2019-03-25T01:15:35.721Z,3.47
2019-03-25T01:18:04.176Z,3.27
2019-03-25T01:20:32.542Z,4.30
2019-03-25T01:23:00.929Z,3.40
2019-03-25T01:25:29.298Z,3.30
2019-03-25T01:27:57.684Z,3.10
2019-03-25T01:30:26.060Z,3.93
2019-03-25T01:32:54.439Z,4.37
2019-03-25T01:35:23.830Z,3.60
2019-03-25T01:37:52.200Z,3.40
2019-03-25T01:40:20.565Z,4.50
2019-03-25T01:42:48.956Z,3.30
2019-03-25T01:45:17.313Z,3.67
2019-03-25T01:47:45.744Z,3.20
2019-03-25T01:50:14.137Z,4.10
2019-03-25T01:52:42.516Z,3.27
2019-03-25T01:55:13.638Z,2.90
2019-03-25T01:57:41.212Z,3.80
2019-03-25T02:00:09.911Z,3.30
2019-03-25T02:02:38.277Z,3.00
2019-03-25T02:05:07.131Z,3.90
2019-03-25T02:07:35.494Z,3.40
2019-03-25T02:10:07.984Z,4.93
2019-03-25T02:12:36.365Z,3.27
2019-03-25T02:15:05.605Z,3.20
2019-03-25T02:17:33.981Z,2.80
2019-03-25T02:20:02.438Z,2.90
2019-03-25T02:22:30.907Z,3.40
2019-03-25T02:24:59.285Z,3.80
2019-03-25T02:27:27.662Z,3.00
2019-03-25T02:29:56.055Z,3.60
2019-03-25T02:32:24.683Z,3.10
2019-03-25T02:34:53.065Z,3.50
2019-03-25T02:37:21.462Z,3.23
2019-03-25T02:39:49.843Z,3.50
2019-03-25T02:42:18.232Z,2.93
2019-03-25T02:44:46.621Z,2.53
2019-03-25T02:47:14.996Z,3.17
2019-03-25T02:49:43.381Z,3.30
2019-03-25T02:52:11.759Z,3.20
2019-03-25T02:54:40.144Z,3.20
2019-03-25T02:57:08.531Z,2.80
2019-03-25T02:59:36.932Z,3.10
2019-03-25T03:02:05.388Z,2.77
2019-03-25T03:04:33.788Z,3.33
2019-03-25T03:07:02.167Z,3.33
2019-03-25T03:09:30.570Z,3.10
2019-03-25T03:11:59.112Z,3.27
2019-03-25T03:14:27.503Z,3.43
2019-03-25T03:16:55.877Z,2.40
2019-03-25T03:19:24.841Z,3.10
2019-03-25T03:21:53.226Z,2.47
2019-03-25T03:24:21.622Z,3.20
2019-03-25T03:26:50.016Z,3.07
2019-03-25T03:29:18.403Z,3.10
2019-03-25T03:31:46.778Z,3.03
2019-03-25T03:34:15.153Z,2.90
2019-03-25T03:36:43.549Z,3.30
2019-03-25T03:39:11.934Z,3.23
2019-03-25T03:41:40.335Z,3.05
2019-03-25T03:44:08.698Z,3.33
2019-03-25T03:46:37.101Z,2.50
2019-03-25T03:49:05.471Z,2.87
2019-03-25T03:51:34.345Z,2.93
2019-03-25T03:54:02.706Z,3.20
2019-03-25T03:56:31.774Z,3.80
2019-03-25T03:59:02.673Z,3.00
2019-03-25T04:01:31.126Z,3.63
2019-03-25T04:03:59.493Z,2.63
2019-03-25T04:06:27.905Z,3.00
2019-03-25T04:08:56.275Z,3.00
2019-03-25T04:11:25.264Z,3.33
2019-03-25T04:13:53.637Z,3.10
2019-03-25T04:16:22.032Z,2.73
2019-03-25T04:18:50.416Z,3.03
2019-03-25T04:21:18.803Z,3.00
2019-03-25T04:23:47.193Z,2.10
2019-03-25T04:26:27.721Z,2.43
2019-03-25T04:28:45.690Z,2.57
2019-03-25T04:31:14.094Z,2.80
2019-03-25T04:33:42.480Z,3.63
2019-03-25T04:36:10.874Z,2.80
2019-03-25T04:38:39.267Z,2.67
2019-03-25T04:41:07.665Z,3.20
2019-03-25T04:43:36.058Z,2.55
2019-03-25T04:46:04.417Z,2.47
2019-03-25T04:48:32.814Z,3.20
2019-03-25T04:51:01.192Z,2.90
2019-03-25T04:53:29.578Z,2.77
2019-03-25T04:55:57.951Z,2.03
2019-03-25T04:58:26.336Z,3.80
2019-03-25T05:00:55.958Z,3.47
2019-03-25T05:03:24.422Z,3.00
2019-03-25T05:05:52.800Z,3.10
2019-03-25T05:08:21.186Z,3.40
2019-03-25T05:10:49.576Z,2.70
2019-03-25T05:13:17.956Z,3.83
2019-03-25T05:15:46.343Z,3.50
2019-03-25T05:18:14.725Z,3.20
2019-03-25T05:20:43.109Z,3.67
2019-03-25T05:23:11.567Z,3.43
2019-03-25T05:25:39.949Z,3.57
2019-03-25T05:28:08.574Z,3.55
2019-03-25T05:30:37.008Z,3.27
2019-03-25T05:33:05.409Z,3.27
2019-03-25T05:35:33.796Z,3.40
2019-03-25T05:38:02.207Z,2.77
2019-03-25T05:40:30.581Z,4.20
2019-03-25T05:42:58.964Z,3.50
2019-03-25T05:45:27.333Z,2.80
2019-03-25T05:47:56.198Z,3.43
2019-03-25T05:50:24.575Z,2.80
2019-03-25T05:52:52.977Z,2.90
2019-03-25T05:55:21.351Z,2.53
2019-03-25T05:57:49.731Z,2.83
2019-03-25T06:00:19.843Z,3.23
2019-03-25T06:02:48.221Z,2.67
2019-03-25T06:05:16.609Z,2.50
2019-03-25T06:07:45.002Z,2.37
2019-03-25T06:10:13.528Z,2.20
2019-03-25T06:12:42.570Z,3.40
2019-03-25T06:15:11.326Z,3.45
2019-03-25T06:17:39.698Z,2.27
2019-03-25T06:20:08.430Z,2.00
2019-03-25T06:22:36.815Z,2.17
2019-03-25T06:25:07.141Z,1.60
2019-03-25T06:27:35.513Z,1.90
2019-03-25T06:30:07.095Z,1.80
2019-03-25T06:32:35.470Z,2.00
2019-03-25T06:35:05.108Z,1.70
2019-03-25T06:37:33.472Z,2.10
2019-03-25T06:40:01.859Z,1.60
2019-03-25T06:42:30.268Z,1.60
2019-03-25T06:44:58.653Z,1.67
2019-03-25T06:47:27.024Z,2.03
2019-03-25T06:49:55.467Z,2.10
2019-03-25T06:52:23.877Z,1.90
2019-03-25T06:54:52.278Z,2.23
2019-03-25T06:57:25.396Z,1.50
2019-03-25T06:59:50.784Z,1.50
2019-03-25T07:02:19.162Z,1.87
2019-03-25T07:04:47.556Z,1.77
2019-03-25T07:07:15.932Z,1.70
2019-03-25T07:09:44.347Z,2.17
2019-03-25T07:12:12.889Z,1.80
2019-03-25T07:14:41.523Z,1.90
2019-03-25T07:17:09.904Z,1.80
2019-03-25T07:19:38.292Z,1.80
2019-03-25T07:22:06.677Z,2.15
2019-03-25T07:24:35.204Z,2.00
2019-03-25T07:27:03.581Z,2.17
2019-03-25T07:29:31.972Z,1.30
2019-03-25T07:32:00.359Z,1.73
2019-03-25T07:34:28.976Z,1.83
2019-03-25T07:36:57.348Z,2.00
2019-03-25T07:39:25.759Z,2.70
2019-03-25T07:41:54.138Z,2.60
2019-03-25T07:44:22.525Z,3.07
2019-03-25T07:46:50.924Z,2.37
2019-03-25T07:49:19.311Z,3.03
2019-03-25T07:51:47.711Z,3.00
2019-03-25T07:54:16.106Z,2.70
2019-03-25T07:56:44.511Z,3.10
2019-03-25T07:59:12.885Z,2.13
2019-03-25T08:01:41.288Z,3.10
2019-03-25T08:04:09.687Z,2.57
2019-03-25T08:06:38.119Z,2.70
2019-03-25T08:09:07.399Z,3.47
2019-03-25T08:11:35.758Z,3.27
2019-03-25T08:14:04.246Z,3.00
2019-03-25T08:16:32.606Z,3.27
2019-03-25T08:19:01.111Z,3.07
2019-03-25T08:21:29.671Z,3.50
2019-03-25T08:23:58.127Z,3.10
2019-03-25T08:26:27.518Z,3.60
2019-03-25T08:28:55.890Z,3.40
2019-03-25T08:31:24.287Z,4.10
2019-03-25T08:33:52.663Z,3.47
2019-03-25T08:36:21.091Z,3.40
2019-03-25T08:38:49.477Z,3.60
2019-03-25T08:41:17.883Z,3.43
2019-03-25T08:43:46.271Z,4.13
2019-03-25T08:46:14.752Z,4.03
2019-03-25T08:48:43.210Z,4.63
2019-03-25T08:51:11.586Z,3.60
2019-03-25T08:53:39.974Z,4.33
2019-03-25T08:56:08.422Z,5.22
2019-03-25T08:58:36.805Z,4.20
2019-03-25T09:01:05.185Z,4.17
2019-03-25T09:03:33.585Z,4.10
2019-03-25T09:06:01.966Z,4.93
2019-03-25T09:08:30.354Z,4.73
2019-03-25T09:10:58.730Z,4.60
2019-03-25T09:13:27.909Z,4.37
2019-03-25T09:15:56.509Z,3.90
2019-03-25T09:18:24.873Z,4.23
2019-03-25T09:20:53.250Z,4.83
2019-03-25T09:23:21.810Z,5.00
2019-03-25T09:25:50.267Z,4.03
2019-03-25T09:28:24.143Z,4.50
2019-03-25T09:30:54.807Z,4.10
2019-03-25T09:33:23.528Z,4.60
2019-03-25T09:35:52.020Z,5.10
2019-03-25T09:38:20.441Z,4.47
2019-03-25T09:40:48.832Z,4.27
2019-03-25T09:43:17.297Z,4.10
2019-03-25T09:45:45.760Z,3.87
2019-03-25T09:48:14.163Z,3.77
2019-03-25T09:50:42.542Z,3.83
2019-03-25T09:53:10.940Z,4.20
2019-03-25T09:55:39.321Z,4.27
2019-03-25T09:58:07.710Z,4.73
2019-03-25T10:00:36.118Z,3.60
2019-03-25T10:03:04.574Z,4.15
2019-03-25T10:05:32.962Z,3.97
2019-03-25T10:08:01.366Z,3.90
2019-03-25T10:10:29.749Z,3.53
2019-03-25T10:12:58.466Z,3.83
2019-03-25T10:15:26.865Z,3.90
2019-03-25T10:17:55.251Z,3.03
2019-03-25T10:20:23.637Z,3.60
2019-03-25T10:22:52.033Z,4.00
2019-03-25T10:25:20.432Z,3.63
2019-03-25T10:27:48.809Z,3.80
2019-03-25T10:30:17.730Z,3.33
2019-03-25T10:32:46.120Z,3.33
2019-03-25T10:35:14.848Z,3.80
2019-03-25T10:37:43.310Z,3.13
2019-03-25T10:40:11.849Z,2.93
2019-03-25T10:42:40.239Z,3.30
2019-03-25T10:45:09.658Z,3.20
2019-03-25T10:47:38.044Z,3.13
2019-03-25T10:50:07.678Z,3.30
2019-03-25T10:52:36.061Z,3.10
2019-03-25T10:55:07.727Z,2.60
2019-03-25T10:57:35.778Z,3.30
2019-03-25T11:00:09.857Z,3.40
2019-03-25T11:02:38.313Z,3.00
2019-03-25T11:05:08.233Z,2.77
2019-03-25T11:07:36.668Z,4.03
2019-03-25T11:10:08.739Z,3.47
2019-03-25T11:12:37.122Z,3.03
2019-03-25T11:15:09.273Z,3.00
2019-03-25T11:17:37.926Z,3.10
2019-03-25T11:20:09.009Z,3.02
2019-03-25T11:22:37.458Z,3.13
2019-03-25T11:25:06.607Z,2.37
2019-03-25T11:27:34.974Z,2.60
2019-03-25T11:30:05.709Z,3.63
2019-03-25T11:32:34.191Z,3.13
2019-03-25T11:35:02.595Z,2.80
2019-03-25T11:37:30.966Z,2.83
2019-03-25T11:39:59.408Z,2.60
2019-03-25T11:42:27.787Z,2.60
2019-03-25T11:44:56.173Z,2.50
2019-03-25T11:47:24.567Z,3.17
2019-03-25T11:49:53.061Z,2.87
2019-03-25T11:52:21.410Z,2.40
2019-03-25T11:54:49.806Z,2.77
2019-03-25T11:57:18.208Z,3.33
2019-03-25T11:59:46.575Z,3.10
2019-03-25T12:02:17.826Z,2.30
2019-03-25T12:04:45.078Z,2.20
2019-03-25T12:07:13.473Z,2.47
2019-03-25T12:09:41.850Z,2.30
2019-03-25T12:12:10.241Z,2.43
2019-03-25T12:14:38.611Z,2.43
2019-03-25T12:17:06.997Z,2.30
2019-03-25T12:19:35.377Z,2.30
2019-03-25T12:22:03.759Z,2.20
2019-03-25T12:24:32.147Z,2.73
2019-03-25T12:27:00.545Z,2.60
2019-03-25T12:29:30.619Z,2.40
2019-03-25T12:31:59.547Z,2.20
2019-03-25T12:34:28.027Z,1.80
2019-03-25T12:36:56.385Z,2.00
2019-03-25T12:39:24.769Z,1.87
2019-03-25T12:41:53.276Z,1.80
2019-03-25T12:44:21.665Z,1.90
2019-03-25T12:46:50.043Z,1.80
2019-03-25T12:49:18.421Z,1.67
2019-03-25T12:51:48.432Z,1.90
2019-03-25T12:54:16.964Z,2.17
2019-03-25T12:56:45.356Z,2.00
2019-03-25T12:59:13.746Z,1.70
2019-03-25T13:01:52.543Z,1.33
2019-03-25T13:04:12.216Z,1.83
2019-03-25T13:06:40.618Z,1.50
2019-03-25T13:09:09.076Z,1.63
2019-03-25T13:11:37.511Z,1.80
2019-03-25T13:14:06.927Z,1.70
2019-03-25T13:16:35.342Z,1.73
2019-03-25T13:19:03.713Z,1.50
2019-03-25T13:21:32.097Z,2.20
2019-03-25T13:24:00.467Z,2.00
2019-03-25T13:26:28.853Z,1.67
2019-03-25T13:29:01.899Z,1.60
2019-03-25T13:31:27.351Z,1.30
2019-03-25T13:33:55.738Z,2.13
2019-03-25T13:36:24.127Z,1.70
2019-03-25T13:38:52.507Z,1.93
2019-03-25T13:41:20.899Z,1.70
2019-03-25T13:43:49.284Z,2.03
2019-03-25T13:46:17.674Z,1.60
2019-03-25T13:48:46.055Z,1.60
2019-03-25T13:51:14.433Z,1.90
2019-03-25T13:53:42.830Z,2.00
2019-03-25T13:56:11.219Z,1.47
2019-03-25T13:58:39.613Z,1.47
2019-03-25T14:01:08.002Z,1.57
2019-03-25T14:03:36.389Z,1.60
2019-03-25T14:06:05.046Z,1.53
2019-03-25T14:08:33.430Z,1.43
2019-03-25T14:11:01.816Z,1.30
2019-03-25T14:13:30.405Z,1.30
2019-03-25T14:15:58.828Z,1.43
2019-03-25T14:18:27.267Z,1.47
2019-03-25T14:20:55.635Z,1.30
2019-03-25T14:23:24.091Z,1.27
2019-03-25T14:25:52.482Z,1.60
2019-03-25T14:28:20.852Z,1.47
2019-03-25T14:30:49.247Z,1.73
2019-03-25T14:33:17.617Z,1.87
2019-03-25T14:35:46.014Z,1.70
2019-03-25T14:38:14.388Z,1.40
2019-03-25T14:40:42.779Z,1.30
2019-03-25T14:43:11.158Z,1.37
2019-03-25T14:45:39.549Z,1.97
2019-03-25T14:48:07.970Z,1.60
2019-03-25T14:50:36.316Z,1.53
2019-03-25T14:53:04.689Z,1.40
2019-03-25T14:55:33.101Z,1.40
2019-03-25T14:58:01.477Z,1.33
2019-03-25T15:00:30.775Z,1.60
2019-03-25T15:02:59.144Z,1.63
2019-03-25T15:05:27.529Z,1.70
2019-03-25T15:07:55.902Z,1.60
2019-03-25T15:10:24.303Z,1.40
2019-03-25T15:12:52.693Z,1.70
2019-03-25T15:15:21.080Z,1.47
2019-03-25T15:17:49.473Z,1.33
2019-03-25T15:20:17.931Z,1.30
2019-03-25T15:22:46.316Z,1.60
2019-03-25T15:25:14.782Z,1.90
2019-03-25T15:27:43.239Z,1.33
2019-03-25T15:30:12.289Z,1.60
2019-03-25T15:32:40.671Z,1.73
2019-03-25T15:35:09.192Z,1.83
2019-03-25T15:37:37.588Z,1.43
2019-03-25T15:40:10.495Z,2.40
2019-03-25T15:42:38.868Z,1.40
2019-03-25T15:45:09.386Z,1.73
2019-03-25T15:47:38.162Z,1.70
2019-03-25T15:50:11.362Z,1.63
2019-03-25T15:52:39.820Z,1.40
2019-03-25T15:55:08.435Z,1.10
2019-03-25T15:57:39.454Z,1.73
2019-03-25T16:00:13.516Z,1.43
2019-03-25T16:02:41.969Z,1.27
2019-03-25T16:05:10.576Z,1.05
2019-03-25T16:07:39.957Z,1.47
2019-03-25T16:10:09.178Z,1.40
2019-03-25T16:12:37.579Z,1.50
2019-03-25T16:15:09.632Z,1.60
2019-03-25T16:17:38.025Z,1.60
2019-03-25T16:20:08.014Z,1.47
2019-03-25T16:22:36.407Z,1.50
2019-03-25T16:25:08.103Z,1.30
2019-03-25T16:27:36.484Z,1.47
2019-03-25T16:30:08.718Z,1.40
2019-03-25T16:32:37.113Z,1.63
2019-03-25T16:35:06.769Z,1.67
2019-03-25T16:37:35.166Z,1.53
2019-03-25T16:40:04.232Z,1.40
2019-03-25T16:42:32.634Z,1.07
2019-03-25T16:45:01.603Z,1.93
2019-03-25T16:47:29.991Z,2.17
2019-03-25T16:49:58.366Z,2.00
2019-03-25T16:52:26.779Z,1.40
2019-03-25T16:54:55.207Z,1.80
2019-03-25T16:57:23.593Z,1.80
2019-03-25T16:59:51.983Z,1.40
2019-03-25T17:02:20.412Z,1.30
2019-03-25T17:04:48.811Z,1.60
2019-03-25T17:07:17.206Z,2.17
2019-03-25T17:09:45.604Z,2.03
2019-03-25T17:12:14.024Z,1.47
2019-03-25T17:14:42.448Z,2.17
2019-03-25T17:17:10.860Z,2.53
2019-03-25T17:19:39.284Z,2.30
2019-03-25T17:22:07.704Z,2.00
2019-03-25T17:24:36.106Z,2.10
2019-03-25T17:27:04.592Z,1.97
2019-03-25T17:29:33.010Z,1.77
2019-03-25T17:32:01.999Z,2.40
2019-03-25T17:34:30.407Z,1.77
2019-03-25T17:36:58.832Z,2.30
2019-03-25T17:39:27.245Z,2.10
2019-03-25T17:41:55.750Z,2.13
2019-03-25T17:44:24.230Z,2.37
2019-03-25T17:46:52.630Z,2.50
2019-03-25T17:49:21.071Z,2.30
2019-03-25T17:51:49.502Z,1.93
2019-03-25T17:54:17.940Z,2.53
2019-03-25T17:56:46.355Z,2.50
2019-03-25T17:59:14.804Z,2.57
2019-03-25T18:01:43.229Z,2.67
2019-03-25T18:04:11.773Z,2.00
2019-03-25T18:06:40.185Z,2.50
2019-03-25T18:09:08.663Z,2.20
2019-03-25T18:11:37.069Z,2.30
2019-03-25T18:14:05.451Z,2.40
2019-03-25T18:16:33.843Z,2.53
2019-03-25T18:19:02.371Z,2.27
2019-03-25T18:21:30.769Z,2.43
2019-03-25T18:23:59.157Z,2.60
2019-03-25T18:26:27.542Z,2.37
2019-03-25T18:28:55.932Z,2.80
2019-03-25T18:31:24.387Z,2.37
2019-03-25T18:33:52.811Z,2.30
2019-03-25T18:36:21.175Z,2.00
2019-03-25T18:38:49.575Z,1.97
2019-03-25T18:41:18.023Z,2.20
2019-03-25T18:43:46.427Z,2.30
2019-03-25T18:46:15.090Z,1.93
2019-03-25T18:48:43.536Z,2.35
2019-03-25T18:51:11.932Z,1.73
2019-03-25T18:53:40.370Z,2.40
2019-03-25T18:56:08.853Z,2.93
2019-03-25T18:58:37.676Z,2.00
2019-03-25T19:01:06.076Z,1.80
2019-03-25T19:03:34.694Z,2.37
2019-03-25T19:06:03.154Z,2.13
2019-03-25T19:08:31.725Z,2.20
2019-03-25T19:11:00.084Z,1.97
2019-03-25T19:13:28.462Z,2.00
2019-03-25T19:15:56.860Z,2.07
2019-03-25T19:18:25.223Z,1.83
2019-03-25T19:20:53.633Z,2.00
2019-03-25T19:23:22.008Z,2.20
2019-03-25T19:25:50.385Z,1.93
2019-03-25T19:28:18.805Z,2.40
2019-03-25T19:30:47.164Z,1.60
2019-03-25T19:33:15.559Z,1.83
2019-03-25T19:35:43.944Z,2.17
2019-03-25T19:38:12.372Z,1.97
2019-03-25T19:40:40.725Z,2.10
2019-03-25T19:43:09.155Z,1.97
2019-03-25T19:45:37.511Z,1.93
2019-03-25T19:48:05.899Z,1.67
2019-03-25T19:50:34.339Z,2.30
2019-03-25T19:53:03.724Z,2.45
2019-03-25T19:55:32.105Z,1.73
2019-03-25T19:58:00.520Z,2.00
2019-03-25T20:00:39.635Z,1.70
2019-03-25T20:03:08.005Z,2.10
2019-03-25T20:05:36.547Z,2.30
2019-03-25T20:08:05.273Z,2.10
2019-03-25T20:10:35.256Z,2.10
2019-03-25T20:13:03.892Z,1.50
2019-03-25T20:15:44.908Z,2.07
2019-03-25T20:18:02.419Z,2.17
2019-03-25T20:20:30.818Z,2.20
2019-03-25T20:22:59.201Z,2.23
2019-03-25T20:25:27.589Z,2.60
2019-03-25T20:27:55.982Z,2.30
2019-03-25T20:30:24.799Z,1.80
2019-03-25T20:32:53.217Z,2.17
2019-03-25T20:35:21.593Z,2.13
2019-03-25T20:37:49.999Z,2.20
2019-03-25T20:40:18.381Z,1.90
2019-03-25T20:42:46.795Z,1.80
2019-03-25T20:45:18.223Z,2.20
2019-03-25T20:47:45.419Z,2.80
2019-03-25T20:50:13.817Z,2.00
2019-03-25T20:52:42.226Z,1.82
2019-03-25T20:55:10.657Z,2.27
2019-03-25T20:57:40.561Z,1.97
2019-03-25T21:00:10.237Z,2.10
2019-03-25T21:02:44.788Z,1.97
2019-03-25T21:05:08.898Z,2.33
2019-03-25T21:07:37.361Z,2.13
2019-03-25T21:10:08.564Z,1.60
2019-03-25T21:12:38.577Z,1.80
2019-03-25T21:15:08.807Z,1.70
2019-03-25T21:17:37.169Z,1.87
2019-03-25T21:20:07.683Z,2.10
2019-03-25T21:22:36.192Z,1.83
2019-03-25T21:25:06.398Z,2.20
2019-03-25T21:27:34.759Z,1.87
2019-03-25T21:30:05.483Z,1.90
2019-03-25T21:32:34.168Z,1.85
2019-03-25T21:35:02.659Z,2.17
2019-03-25T21:37:31.169Z,2.00
2019-03-25T21:39:59.533Z,1.50
2019-03-25T21:42:29.277Z,1.70
2019-03-25T21:44:57.802Z,2.03
2019-03-25T21:47:26.203Z,1.53
2019-03-25T21:49:54.590Z,1.73
2019-03-25T21:52:23.008Z,1.70
2019-03-25T21:54:51.444Z,2.07
2019-03-25T21:57:19.808Z,2.30
2019-03-25T21:59:48.145Z,1.80
2019-03-25T22:02:16.531Z,2.50
2019-03-25T22:04:44.918Z,1.70
2019-03-25T22:07:13.308Z,2.00
2019-03-25T22:09:41.708Z,1.40
2019-03-25T22:12:10.098Z,1.73
2019-03-25T22:14:38.505Z,1.90
2019-03-25T22:17:06.893Z,1.80
2019-03-25T22:19:35.283Z,1.60
2019-03-25T22:22:04.426Z,1.37
2019-03-25T22:24:32.806Z,1.70
2019-03-25T22:27:01.409Z,1.97
2019-03-25T22:29:29.804Z,1.93
2019-03-25T22:31:58.176Z,1.90
2019-03-25T22:34:26.584Z,1.70
2019-03-25T22:36:54.960Z,2.10
2019-03-25T22:39:23.344Z,1.67
2019-03-25T22:41:51.725Z,1.47
2019-03-25T22:44:20.119Z,1.90
2019-03-25T22:46:48.493Z,1.37
2019-03-25T22:49:16.883Z,1.63
2019-03-25T22:51:45.264Z,1.70
2019-03-25T22:54:13.666Z,1.70
2019-03-25T22:56:42.044Z,1.40
2019-03-25T22:59:10.435Z,1.70
2019-03-25T23:01:39.063Z,1.23
2019-03-25T23:04:07.468Z,1.67
2019-03-25T23:06:35.879Z,1.60
2019-03-25T23:09:07.585Z,1.40
2019-03-25T23:11:36.208Z,1.63
2019-03-25T23:14:04.945Z,1.60
2019-03-25T23:16:33.349Z,2.20
2019-03-25T23:19:01.738Z,1.60
2019-03-25T23:21:30.130Z,2.57
2019-03-25T23:23:58.530Z,2.40
2019-03-25T23:26:26.921Z,1.93
2019-03-25T23:28:55.307Z,2.20
2019-03-25T23:31:23.692Z,2.30
2019-03-25T23:33:52.776Z,1.90
2019-03-25T23:36:21.156Z,1.87
2019-03-25T23:38:49.525Z,2.43
2019-03-25T23:41:17.935Z,2.07
2019-03-25T23:43:46.324Z,1.87
2019-03-25T23:46:14.724Z,2.57
2019-03-25T23:48:43.133Z,1.80
2019-03-25T23:51:11.535Z,2.13
2019-03-25T23:53:39.919Z,2.23
2019-03-25T23:56:08.305Z,1.97
2019-03-25T23:58:36.679Z,2.23
